Terminal Aerodrome Forecast
Issued by NWS La Crosse, WI

Home | Current Version | Previous Version | Text Only | Print | Product List | Glossary On
Versions: 1 2 3 4 5 6 7 8 9 10 11 12 13 14 15 16 17 18 19 20 21 22 23 24 25 26 27 28 29 30
000
FTUS43 KARX 211411 AAA
TAFRST
TAF AMD
KRST 211411Z 2114/2212 18014KT P6SM BKN150
      TEMPO 2114/2116 -SHRA BKN090
     FM211600 18015G24KT P6SM SCT250
     FM220000 18010KT P6SM BKN200
     FM220900 15006KT P6SM BKN070=

USA.gov is the U.S. government's official web portal to all federal, state and local government web resources and services.